NCAR-RAP Real-Time Weather Data

Output produced by METARs form (10 April 2020  06:57 UTC)
found at http://weather.rap.ucar.edu/surface/
 
KCID 100652Z AUTO 30011KT 10SM CLR M03/M07 A3010 RMK AO2 SLP200 T10281067
KCID 100552Z AUTO 31012G22KT 10SM CLR M01/M07 A3009 RMK AO2 SLP196 T10111067 10033 21017 400891022 51010
KCID 100452Z AUTO 31012KT 10SM CLR M02/M07 A3008 RMK AO2 SLP192 T10171067
KCID 100352Z 31010KT 10SM CLR M01/M07 A3007 RMK AO2 SLP188 T10111067
KCID 100252Z 31014KT 10SM CLR 00/M07 A3006 RMK AO2 SLP184 T00001072 53024
KCID 100152Z 32017G23KT 10SM CLR 01/M08 A3003 RMK AO2 PK WND 31030/0053 SLP177 T00111078
KCID 100052Z 32018G27KT 10SM BKN060 BKN075 02/M08 A3001 RMK AO2 PK WND 32034/0013 SLP169 T00221083
KCID 092352Z 32022G29KT 10SM CLR 03/M08 A2998 RMK AO2 PK WND 33038/2259 SLP162 60000 T00281083 10072 20028 53025
KCID 092252Z 31028G43KT 10SM BKN080 04/M10 A2995 RMK AO2 PK WND 31043/2244 SLP149 T00441100
KCID 092152Z 34025G36KT 10SM SCT060 BKN075 BKN090 06/M08 A2993 RMK AO2 PK WND 31051/2114 SLP142 T00561078
KCID 092052Z 32031G46KT 10SM SCT070 BKN080 06/M10 A2991 RMK AO2 PK WND 30052/2011 SLP135 60000 T00611100 53008
KCID 091952Z 32030G45KT 10SM BKN055 OVC075 06/M07 A2990 RMK AO2 PK WND 31046/1928 SLP131 T00561072
KCID 091852Z 31031G45KT 10SM FEW046 SCT060 BKN085 07/M04 A2989 RMK AO2 PK WND 32045/1845 RAE02B36E46 SLP127 P0000 T00671039
KCID 091752Z 32026G39KT 7SM -RA BR FEW043 BKN050 BKN075 04/M03 A2988 RMK AO2 PK WND 32040/1715 RAB17E31B48 SLP126 P0000 60000 T00391028 10089 21017 53001
KCID 091652Z 32021G31KT 10SM SCT055 BKN100 09/M05 A2987 RMK AO2 PK WND 32036/1626 RAB28E37 SLP118 P0000 T00891050
KCID 091552Z 32020G26KT 10SM FEW055 BKN075 07/M06 A2987 RMK AO2 PK WND 30029/1506 SLP120 T00721061
KCID 091452Z 29017KT 10SM CLR 06/M02 A2988 RMK AO2 SLP123 T00611022 56014
KCID 091352Z 29013KT 10SM CLR 03/M02 A2989 RMK AO2 SLP127 T00331017
KCID 091252Z 29006KT 10SM CLR 02/M02 A2991 RMK AO2 SLP133 T00171017
KCID 091152Z 27008KT 10SM CLR M02/M03 A2992 RMK AO2 SLP139 T10171033 10039 21022 53002
KCID 091052Z 26008KT 10SM CLR M02/M04 A2992 RMK AO2 SLP136 T10221039
KCID 090952Z 30006KT 10SM CLR M02/M03 A2991 RMK AO2 SLP133 T10171033
KCID 090852Z AUTO 28007KT 10SM CLR M01/M03 A2992 RMK AO2 SLP136 T10111033 51010